Time;durP1;ratioP1;P1;durP2;ratioP2;P2;SDS_P1;SDS_P2;PMS_P1;PMS_P2;Temp;Humidity;BMP_temperature;BMP_pressure;BME280_temperature;BME280_humidity;BME280_pressure;Samples;Min_cycle;Max_cycle;Signal;HPM_P1;HPM_P2
2023/03/17 00:00:13;;;;;;;0.10;0.10;;;6.20;99.90;;;;;;5016610;28;20260;-84
2023/03/17 00:02:42;;;;;;;0.10;0.10;;;6.20;99.90;;;;;;5015556;28;21014;-84
2023/03/17 00:05:19;;;;;;;0.10;0.10;;;6.10;99.90;;;;;;5016193;28;20228;-84
2023/03/17 00:07:46;;;;;;;0.10;0.10;;;6.20;99.90;;;;;;5015477;28;20553;-84
2023/03/17 00:10:17;;;;;;;0.10;0.10;;;6.20;99.90;;;;;;5014693;28;20551;-84
2023/03/17 00:12:44;;;;;;;0.10;0.10;;;6.20;99.90;;;;;;5015120;28;20216;-84
2023/03/17 00:15:10;;;;;;;0.10;0.10;;;6.30;99.90;;;;;;5026021;28;20310;-84
2023/03/17 00:17:36;;;;;;;0.10;0.10;;;6.20;99.90;;;;;;5034050;28;20252;-84
2023/03/17 00:20:04;;;;;;;0.10;0.10;;;6.30;99.90;;;;;;5015222;28;20216;-83
2023/03/17 00:22:30;;;;;;;0.10;0.10;;;6.30;99.90;;;;;;5014266;28;20215;-84
2023/03/17 00:24:55;;;;;;;0.10;0.10;;;6.40;99.90;;;;;;5015308;28;20184;-84
2023/03/17 00:27:21;;;;;;;0.10;0.10;;;6.40;99.90;;;;;;5019322;28;20667;-84
2023/03/17 00:29:46;;;;;;;0.10;0.10;;;6.40;99.90;;;;;;5018506;28;20619;-84
2023/03/17 00:32:19;;;;;;;0.10;0.10;;;6.40;99.90;;;;;;5015031;28;20253;-85
2023/03/17 00:34:45;;;;;;;0.10;0.10;;;6.50;99.90;;;;;;5025391;28;20177;-84
2023/03/17 00:37:11;;;;;;;0.10;0.10;;;6.50;99.90;;;;;;5018254;28;20272;-85
2023/03/17 00:39:38;;;;;;;0.10;0.10;;;6.30;99.90;;;;;;5036376;28;20201;-87
2023/03/17 00:42:05;;;;;;;0.10;0.10;;;6.30;99.90;;;;;;5036846;28;20197;-84
2023/03/17 00:44:31;;;;;;;0.10;0.10;;;6.30;99.90;;;;;;5016029;28;20195;-84
2023/03/17 00:46:57;;;;;;;0.10;0.10;;;6.30;99.90;;;;;;5033790;28;20181;-83
2023/03/17 00:49:24;;;;;;;0.10;0.10;;;6.30;99.90;;;;;;5016056;28;20209;-84
2023/03/17 00:51:50;;;;;;;0.10;0.10;;;6.40;99.90;;;;;;5018762;28;20224;-84
2023/03/17 00:54:18;;;;;;;0.10;0.10;;;6.40;99.90;;;;;;5015624;28;20651;-84
2023/03/17 00:56:44;;;;;;;0.10;0.10;;;6.40;99.90;;;;;;5014179;28;20216;-84
2023/03/17 00:59:25;;;;;;;0.10;0.10;;;6.30;99.90;;;;;;5014997;28;20236;-84
2023/03/17 01:01:51;;;;;;;0.00;0.00;;;6.20;99.90;;;;;;5034589;28;20174;-84
2023/03/17 01:04:17;;;;;;;0.10;0.10;;;6.00;99.90;;;;;;5018654;28;20183;-84
2023/03/17 01:06:42;;;;;;;0.10;0.10;;;6.10;99.90;;;;;;5019322;28;20192;-84
2023/03/17 01:09:13;;;;;;;0.10;0.10;;;6.00;99.90;;;;;;5024756;28;20209;-84
2023/03/17 01:11:39;;;;;;;0.10;0.10;;;6.10;99.90;;;;;;5022597;28;20204;-84
2023/03/17 01:14:04;;;;;;;0.10;0.10;;;6.10;99.90;;;;;;5033531;28;20645;-84
2023/03/17 01:16:30;;;;;;;0.10;0.10;;;6.20;99.90;;;;;;5016265;28;20196;-84
2023/03/17 01:18:55;;;;;;;0.10;0.10;;;6.20;99.90;;;;;;5017014;28;20198;-85
2023/03/17 01:21:21;;;;;;;0.10;0.10;;;6.10;99.90;;;;;;5017009;28;20671;-84
2023/03/17 01:23:47;;;;;;;0.10;0.10;;;6.10;99.90;;;;;;5034062;28;20183;-83
2023/03/17 01:26:12;;;;;;;0.10;0.10;;;6.10;99.90;;;;;;5014874;28;20228;-84
2023/03/17 01:28:38;;;;;;;0.10;0.10;;;6.10;99.90;;;;;;5014431;28;20240;-86
2023/03/17 01:31:03;;;;;;;0.10;0.10;;;6.10;99.90;;;;;;5015399;28;20674;-87
2023/03/17 01:33:29;;;;;;;0.10;0.10;;;6.00;99.90;;;;;;5013847;28;20215;-84
2023/03/17 01:35:55;;;;;;;0.10;0.10;;;5.90;99.90;;;;;;5015844;28;20188;-84
2023/03/17 01:38:21;;;;;;;0.10;0.10;;;5.90;99.90;;;;;;5013386;28;20208;-84
2023/03/17 01:40:49;;;;;;;0.10;0.10;;;5.90;99.90;;;;;;5013729;28;20182;-84
2023/03/17 01:43:17;;;;;;;0.10;0.10;;;5.90;99.90;;;;;;5016509;28;20192;-84
2023/03/17 01:46:20;;;;;;;0.10;0.10;;;5.90;99.90;;;;;;5015147;28;20274;-84
2023/03/17 01:49:13;;;;;;;0.10;0.10;;;5.90;99.90;;;;;;5013903;28;20581;-84
2023/03/17 01:51:48;;;;;;;0.10;0.10;;;5.80;99.90;;;;;;5032432;28;20378;-84
2023/03/17 01:54:21;;;;;;;0.10;0.10;;;5.70;99.90;;;;;;5032147;28;20195;-85
2023/03/17 01:56:50;;;;;;;0.10;0.10;;;5.80;99.90;;;;;;5030204;28;20275;-84
2023/03/17 01:59:21;;;;;;;0.10;0.10;;;5.80;99.90;;;;;;5023388;28;20218;-84
2023/03/17 02:01:51;;;;;;;0.10;0.10;;;5.80;99.90;;;;;;5033173;28;20201;-84
2023/03/17 02:04:18;;;;;;;0.10;0.10;;;5.80;99.90;;;;;;5015470;28;20188;-84
2023/03/17 02:06:45;;;;;;;0.10;0.10;;;5.80;99.90;;;;;;5018459;28;20196;-84
2023/03/17 02:09:11;;;;;;;0.10;0.10;;;5.80;99.90;;;;;;5018326;28;20304;-84
2023/03/17 02:11:37;;;;;;;0.10;0.10;;;5.80;99.90;;;;;;5017122;28;20195;-84
2023/03/17 02:14:03;;;;;;;0.10;0.10;;;5.80;99.90;;;;;;5019704;28;20183;-84
2023/03/17 02:16:29;;;;;;;0.10;0.10;;;5.60;99.90;;;;;;5017944;28;20641;-84
2023/03/17 02:18:54;;;;;;;0.10;0.10;;;5.60;99.90;;;;;;5018629;28;20213;-85
2023/03/17 02:21:42;;;;;;;0.10;0.10;;;5.60;99.90;;;;;;5017538;28;20664;-84
2023/03/17 02:24:25;;;;;;;0.10;0.10;;;5.70;99.90;;;;;;5019108;28;20193;-83
2023/03/17 02:26:53;;;;;;;0.10;0.10;;;5.60;99.90;;;;;;5017259;28;20266;-84
2023/03/17 02:29:21;;;;;;;0.10;0.10;;;5.30;99.90;;;;;;5036502;28;20211;-84
2023/03/17 02:31:47;;;;;;;0.10;0.10;;;5.10;99.90;;;;;;5018351;28;20744;-84
2023/03/17 02:34:14;;;;;;;0.10;0.10;;;5.00;99.90;;;;;;5018530;28;20263;-84
2023/03/17 02:36:40;;;;;;;0.10;0.10;;;4.90;99.90;;;;;;5018633;28;20200;-88
2023/03/17 02:39:06;;;;;;;0.10;0.10;;;4.90;99.90;;;;;;5022936;28;20233;-86
2023/03/17 02:41:33;;;;;;;0.10;0.10;;;5.00;99.90;;;;;;5023977;28;20585;-86
2023/03/17 02:43:59;;;;;;;0.10;0.10;;;5.00;99.90;;;;;;5021429;28;20690;-85
2023/03/17 02:46:25;;;;;;;0.10;0.10;;;5.10;99.90;;;;;;5023833;28;20180;-87
2023/03/17 02:48:52;;;;;;;0.10;0.10;;;5.20;99.90;;;;;;5023947;28;20208;-88
2023/03/17 02:51:18;;;;;;;0.10;0.10;;;5.40;99.90;;;;;;5039044;28;20238;-86
2023/03/17 02:53:43;;;;;;;0.10;0.10;;;5.40;99.90;;;;;;5023331;28;20201;-85
2023/03/17 02:56:09;;;;;;;0.10;0.10;;;5.40;99.90;;;;;;5020843;28;20180;-86
2023/03/17 02:58:35;;;;;;;0.10;0.10;;;5.40;99.90;;;;;;5024109;28;20205;-87
2023/03/17 03:01:02;;;;;;;0.10;0.10;;;5.40;99.90;;;;;;5020049;28;20178;-86
2023/03/17 03:03:27;;;;;;;0.10;0.10;;;5.40;99.90;;;;;;5021046;28;20721;-86
2023/03/17 03:05:53;;;;;;;0.10;0.10;;;5.30;99.90;;;;;;5019654;28;20192;-86
2023/03/17 03:08:19;;;;;;;0.10;0.10;;;5.30;99.90;;;;;;5018959;28;20286;-85
2023/03/17 03:10:45;;;;;;;0.10;0.10;;;5.20;99.90;;;;;;5035641;28;20215;-85
2023/03/17 03:13:11;;;;;;;0.10;0.10;;;5.20;99.90;;;;;;5037174;28;20207;-86
2023/03/17 03:15:40;;;;;;;0.10;0.10;;;5.20;99.90;;;;;;5018644;28;20314;-85
2023/03/17 03:18:06;;;;;;;0.10;0.10;;;5.10;99.90;;;;;;5018772;28;20221;-85
2023/03/17 03:20:31;;;;;;;0.10;0.10;;;5.10;99.90;;;;;;5017878;28;20239;-85
2023/03/17 03:22:57;;;;;;;0.10;0.10;;;5.10;99.90;;;;;;5016887;28;20200;-85
2023/03/17 03:25:22;;;;;;;0.10;0.10;;;5.10;99.90;;;;;;5016800;28;20222;-86
2023/03/17 03:27:48;;;;;;;0.10;0.10;;;5.10;99.90;;;;;;5036179;28;20190;-86
2023/03/17 03:30:13;;;;;;;0.10;0.10;;;5.10;99.90;;;;;;5036069;28;20187;-85
2023/03/17 03:32:39;;;;;;;0.10;0.10;;;5.00;99.90;;;;;;5016655;28;20638;-86
2023/03/17 03:35:05;;;;;;;0.10;0.10;;;4.60;99.90;;;;;;5016763;28;20203;-85
2023/03/17 03:37:31;;;;;;;0.00;0.00;;;4.60;99.90;;;;;;5019210;28;20190;-86
2023/03/17 03:39:56;;;;;;;0.10;0.10;;;4.50;99.90;;;;;;5033997;28;20285;-86
2023/03/17 03:42:22;;;;;;;0.00;0.00;;;4.20;99.90;;;;;;5034812;28;20195;-85
2023/03/17 03:44:47;;;;;;;0.10;0.10;;;4.10;99.90;;;;;;5031285;28;20193;-85
2023/03/17 03:47:13;;;;;;;0.10;0.10;;;4.10;99.90;;;;;;5017826;28;20188;-85
2023/03/17 03:49:38;;;;;;;0.10;0.10;;;4.10;99.90;;;;;;5017855;28;20324;-85
2023/03/17 03:52:04;;;;;;;0.10;0.10;;;4.20;99.90;;;;;;5017815;28;21067;-85
2023/03/17 03:54:30;;;;;;;0.00;0.00;;;4.30;99.90;;;;;;5017700;28;20184;-85
2023/03/17 03:56:56;;;;;;;0.10;0.10;;;4.40;99.90;;;;;;5015499;28;20195;-86
2023/03/17 03:59:21;;;;;;;0.10;0.10;;;4.50;99.90;;;;;;5016460;28;20290;-85
2023/03/17 04:01:47;;;;;;;0.10;0.10;;;4.40;99.90;;;;;;5018069;28;20274;-85
2023/03/17 04:04:12;;;;;;;0.07;0.07;;;4.20;99.90;;;;;;5018195;28;20191;-85
2023/03/17 04:06:38;;;;;;;0.10;0.10;;;4.00;99.90;;;;;;5015880;28;20248;-86
2023/03/17 04:09:04;;;;;;;0.10;0.10;;;3.80;99.90;;;;;;5016210;28;20221;-85
2023/03/17 04:11:29;;;;;;;0.10;0.10;;;3.70;99.90;;;;;;5014860;28;20183;-85
2023/03/17 04:13:55;;;;;;;0.10;0.10;;;3.80;99.90;;;;;;5017002;28;20188;-86
2023/03/17 04:16:21;;;;;;;0.10;0.10;;;3.70;99.90;;;;;;5015463;28;20229;-85
2023/03/17 04:18:46;;;;;;;0.10;0.10;;;3.70;99.90;;;;;;5015675;28;20194;-85
2023/03/17 04:21:12;;;;;;;0.00;0.00;;;3.80;99.90;;;;;;5035937;28;20614;-84
2023/03/17 04:23:38;;;;;;;0.00;0.00;;;3.80;99.90;;;;;;5028084;28;20191;-85
2023/03/17 04:26:04;;;;;;;0.10;0.10;;;3.90;99.90;;;;;;5015519;28;20309;-86
2023/03/17 04:28:30;;;;;;;0.10;0.10;;;4.00;99.90;;;;;;5014920;28;20912;-85
2023/03/17 04:30:55;;;;;;;0.10;0.10;;;4.10;99.90;;;;;;5016367;28;20190;-85
2023/03/17 04:33:21;;;;;;;0.10;0.10;;;4.20;99.90;;;;;;5015259;28;20579;-85
2023/03/17 04:35:46;;;;;;;0.10;0.10;;;4.30;99.90;;;;;;5016038;28;20189;-85
2023/03/17 04:38:12;;;;;;;0.00;0.00;;;4.20;99.90;;;;;;5017448;28;20202;-85
2023/03/17 04:40:38;;;;;;;0.10;0.10;;;4.20;99.90;;;;;;5016856;28;20819;-85
2023/03/17 04:43:03;;;;;;;0.07;0.07;;;4.20;99.90;;;;;;5016147;28;20998;-85
2023/03/17 04:45:29;;;;;;;0.10;0.10;;;4.30;99.90;;;;;;5017609;28;20619;-85
2023/03/17 04:47:54;;;;;;;0.10;0.10;;;4.30;99.90;;;;;;5014707;28;20192;-85
2023/03/17 04:50:20;;;;;;;0.00;0.00;;;4.30;99.90;;;;;;5034354;28;20188;-85
2023/03/17 04:52:45;;;;;;;0.10;0.10;;;4.40;99.90;;;;;;5016753;28;20218;-85
2023/03/17 04:55:11;;;;;;;0.10;0.10;;;4.20;99.90;;;;;;5016122;28;20182;-85
2023/03/17 04:57:37;;;;;;;0.10;0.10;;;3.90;99.90;;;;;;5016048;28;20669;-84
2023/03/17 05:00:06;;;;;;;0.10;0.10;;;3.60;99.90;;;;;;5017703;28;20750;-86
2023/03/17 05:02:32;;;;;;;0.10;0.10;;;3.40;99.90;;;;;;5017425;28;20779;-86
2023/03/17 05:04:57;;;;;;;0.00;0.00;;;3.30;99.90;;;;;;5020565;28;20202;-85
2023/03/17 05:07:23;;;;;;;0.10;0.10;;;3.20;99.90;;;;;;5027699;28;20671;-85
2023/03/17 05:09:49;;;;;;;0.10;0.10;;;3.20;99.90;;;;;;5016979;28;20218;-85
2023/03/17 05:12:14;;;;;;;0.10;0.10;;;3.30;99.90;;;;;;5033851;28;20276;-85
2023/03/17 05:14:40;;;;;;;0.10;0.10;;;3.50;99.90;;;;;;5018909;28;20183;-86
2023/03/17 05:17:06;;;;;;;0.10;0.10;;;3.60;99.90;;;;;;5033698;28;20227;-85
2023/03/17 05:19:31;;;;;;;0.10;0.10;;;3.70;99.90;;;;;;5015947;28;20215;-85
2023/03/17 05:21:57;;;;;;;0.10;0.10;;;3.80;99.90;;;;;;5033687;28;20182;-85
2023/03/17 05:24:23;;;;;;;0.10;0.10;;;3.80;99.90;;;;;;5016393;28;20200;-85
2023/03/17 05:26:48;;;;;;;0.10;0.10;;;3.80;99.90;;;;;;5014896;28;20190;-85
2023/03/17 05:29:14;;;;;;;0.10;0.10;;;3.90;99.90;;;;;;5031791;28;20218;-85
2023/03/17 05:31:40;;;;;;;0.10;0.10;;;3.80;99.90;;;;;;5031179;28;20180;-85
2023/03/17 05:34:06;;;;;;;0.10;0.10;;;3.60;99.90;;;;;;5019445;28;20226;-85
2023/03/17 05:36:32;;;;;;;0.10;0.10;;;3.50;99.90;;;;;;5017163;28;20230;-85
2023/03/17 05:38:58;;;;;;;0.10;0.10;;;3.40;99.90;;;;;;5016843;28;20259;-85
2023/03/17 05:41:24;;;;;;;0.10;0.10;;;3.30;99.90;;;;;;5018059;28;20193;-85
2023/03/17 05:43:49;;;;;;;0.10;0.10;;;3.20;99.90;;;;;;5015998;28;20195;-85
2023/03/17 05:46:15;;;;;;;0.10;0.10;;;3.20;99.90;;;;;;5015154;28;20542;-85
2023/03/17 05:48:40;;;;;;;0.10;0.10;;;3.20;99.90;;;;;;5018926;28;20929;-84
2023/03/17 05:51:06;;;;;;;0.10;0.10;;;3.10;99.90;;;;;;5020359;28;20562;-85
2023/03/17 05:53:32;;;;;;;0.10;0.10;;;3.20;99.90;;;;;;5020019;28;20197;-84
2023/03/17 05:55:58;;;;;;;0.10;0.10;;;3.40;99.90;;;;;;5037802;28;20184;-85
2023/03/17 05:58:23;;;;;;;0.10;0.10;;;3.40;99.90;;;;;;5016799;28;20237;-84
2023/03/17 06:00:49;;;;;;;0.03;0.03;;;3.50;99.90;;;;;;5018766;28;20228;-84
2023/03/17 06:03:15;;;;;;;0.10;0.10;;;3.70;99.90;;;;;;5017712;28;20280;-84
2023/03/17 06:05:41;;;;;;;0.10;0.10;;;3.80;99.90;;;;;;5022265;28;20249;-84
2023/03/17 06:08:06;;;;;;;0.00;0.00;;;3.80;99.90;;;;;;5022916;28;20801;-85
2023/03/17 06:10:32;;;;;;;0.10;0.10;;;3.70;99.90;;;;;;5019002;28;20193;-82
2023/03/17 06:13:00;;;;;;;0.10;0.10;;;3.60;99.90;;;;;;5037376;28;20228;-81
2023/03/17 06:15:26;;;;;;;0.00;0.00;;;3.50;99.90;;;;;;5031264;28;20191;-81
2023/03/17 06:17:51;;;;;;;0.10;0.10;;;3.40;99.90;;;;;;5036724;28;20178;-82
2023/03/17 06:20:17;;;;;;;0.10;0.10;;;3.50;99.90;;;;;;5036083;28;20197;-82
2023/03/17 06:22:44;;;;;;;0.10;0.10;;;3.70;99.90;;;;;;5034124;28;20187;-83
2023/03/17 06:25:11;;;;;;;0.10;0.10;;;3.90;99.90;;;;;;5018507;28;20272;-83
2023/03/17 06:27:36;;;;;;;0.10;0.10;;;4.20;99.90;;;;;;5038872;28;20181;-82
2023/03/17 06:30:04;;;;;;;0.10;0.10;;;4.40;99.90;;;;;;5034983;28;20210;-83
2023/03/17 06:32:30;;;;;;;0.10;0.10;;;4.70;99.90;;;;;;5023212;28;20203;-82
2023/03/17 06:34:56;;;;;;;0.10;0.10;;;5.00;99.90;;;;;;5018356;28;20187;-84
2023/03/17 06:37:21;;;;;;;0.07;0.07;;;5.20;99.90;;;;;;5036618;28;20195;-84
2023/03/17 06:39:47;;;;;;;0.10;0.10;;;5.40;99.90;;;;;;5018243;28;20283;-84
2023/03/17 06:42:13;;;;;;;0.10;0.10;;;5.60;99.90;;;;;;5013257;28;20202;-81
2023/03/17 06:44:39;;;;;;;0.10;0.10;;;5.80;99.90;;;;;;5037174;28;20238;-82
2023/03/17 06:47:05;;;;;;;0.10;0.10;;;5.90;99.90;;;;;;5020566;28;20261;-82
2023/03/17 06:49:30;;;;;;;0.10;0.10;;;6.00;99.90;;;;;;5018624;28;20290;-82
2023/03/17 06:51:56;;;;;;;0.10;0.10;;;6.20;99.90;;;;;;5022529;28;20220;-82
2023/03/17 06:54:24;;;;;;;0.10;0.10;;;6.40;99.90;;;;;;5021655;28;20191;-82
2023/03/17 06:56:50;;;;;;;0.10;0.10;;;6.60;99.90;;;;;;5022138;28;20188;-82
2023/03/17 06:59:16;;;;;;;0.10;0.10;;;6.80;99.90;;;;;;5019260;28;20205;-82
2023/03/17 07:01:42;;;;;;;0.10;0.10;;;7.00;99.90;;;;;;5021396;28;20197;-82
2023/03/17 07:04:08;;;;;;;0.10;0.10;;;7.20;99.90;;;;;;5017907;28;20189;-82
2023/03/17 07:06:34;;;;;;;0.10;0.10;;;7.40;99.90;;;;;;5020676;28;20188;-82
2023/03/17 07:09:00;;;;;;;0.10;0.10;;;7.10;99.90;;;;;;5020040;28;20201;-81
2023/03/17 07:11:25;;;;;;;0.00;0.00;;;7.10;99.90;;;;;;5021520;28;20188;-82
2023/03/17 07:13:51;;;;;;;0.10;0.10;;;7.40;99.90;;;;;;5039442;28;20209;-82
2023/03/17 07:16:18;;;;;;;0.10;0.10;;;7.60;99.90;;;;;;5018732;28;20213;-81
2023/03/17 07:18:45;;;;;;;0.10;0.10;;;7.90;99.90;;;;;;5020405;28;21049;-82
2023/03/17 07:21:10;;;;;;;0.10;0.10;;;7.90;99.90;;;;;;5019694;28;20190;-82
2023/03/17 07:23:36;;;;;;;0.07;0.07;;;8.10;99.90;;;;;;5017159;28;20426;-81
2023/03/17 07:26:02;;;;;;;0.10;0.10;;;8.10;99.90;;;;;;5020646;28;20241;-81
2023/03/17 07:28:28;;;;;;;0.10;0.10;;;8.40;99.90;;;;;;5036792;28;20207;-82
2023/03/17 07:30:55;;;;;;;0.10;0.10;;;8.50;99.90;;;;;;5013365;28;20188;-82
2023/03/17 07:33:20;;;;;;;0.10;0.10;;;8.60;99.90;;;;;;5018212;28;20214;-82
2023/03/17 07:35:47;;;;;;;0.10;0.10;;;8.70;99.90;;;;;;5017397;28;20193;-82
2023/03/17 07:38:14;;;;;;;0.10;0.10;;;8.90;99.90;;;;;;5039490;28;20207;-82
2023/03/17 07:40:40;;;;;;;0.10;0.10;;;9.10;99.90;;;;;;5019792;28;20190;-82
2023/03/17 07:43:07;;;;;;;0.10;0.10;;;8.90;99.90;;;;;;5019192;28;20248;-82
2023/03/17 07:45:34;;;;;;;0.10;0.10;;;9.20;99.90;;;;;;5017495;28;20539;-83
2023/03/17 07:48:04;;;;;;;0.10;0.10;;;9.40;99.90;;;;;;5019573;28;20686;-82
2023/03/17 07:50:33;;;;;;;0.10;0.10;;;9.50;99.90;;;;;;5037567;28;20182;-82
2023/03/17 07:52:58;;;;;;;0.10;0.10;;;9.70;99.90;;;;;;5035906;28;20287;-82
2023/03/17 07:55:25;;;;;;;0.10;0.10;;;9.80;99.90;;;;;;5019796;28;20331;-82
2023/03/17 07:57:51;;;;;;;0.00;0.00;;;9.50;99.90;;;;;;5035097;28;20198;-82
2023/03/17 08:00:18;;;;;;;0.10;0.10;;;9.40;99.90;;;;;;5034727;28;20187;-82
2023/03/17 08:02:44;;;;;;;0.10;0.10;;;9.80;99.90;;;;;;5017403;28;20194;-82
2023/03/17 08:05:09;;;;;;;0.10;0.10;;;10.10;99.90;;;;;;5020340;28;20680;-82
2023/03/17 08:07:39;;;;;;;0.10;0.10;;;10.40;99.90;;;;;;5029084;28;20193;-83
2023/03/17 08:10:06;;;;;;;0.10;0.10;;;10.50;99.90;;;;;;5025339;28;20793;-82
2023/03/17 08:12:32;;;;;;;0.10;0.10;;;10.60;99.90;;;;;;5015602;28;20214;-81
2023/03/17 08:14:57;;;;;;;0.10;0.10;;;10.60;99.90;;;;;;5035342;28;20257;-83
2023/03/17 08:17:26;;;;;;;0.10;0.10;;;10.70;99.90;;;;;;5028629;28;20186;-83
2023/03/17 08:19:52;;;;;;;0.10;0.10;;;10.50;99.90;;;;;;5034697;28;20206;-82
2023/03/17 08:22:18;;;;;;;0.10;0.10;;;10.40;99.90;;;;;;5018314;28;20197;-83
2023/03/17 08:24:43;;;;;;;0.10;0.10;;;10.60;99.90;;;;;;5035654;28;20185;-82
2023/03/17 08:27:09;;;;;;;0.10;0.10;;;10.20;99.90;;;;;;5018185;28;20186;-83
2023/03/17 08:29:34;;;;;;;0.10;0.10;;;10.60;99.90;;;;;;5016020;28;20205;-81
2023/03/17 08:32:00;;;;;;;0.10;0.10;;;10.70;99.90;;;;;;5016802;28;20331;-83
2023/03/17 08:34:26;;;;;;;0.10;0.10;;;10.90;99.90;;;;;;5015503;28;20249;-83
2023/03/17 08:36:52;;;;;;;0.10;0.10;;;11.10;99.90;;;;;;5016115;28;20276;-82
2023/03/17 08:39:18;;;;;;;0.10;0.10;;;11.20;99.90;;;;;;5015120;28;20278;-83
2023/03/17 08:41:44;;;;;;;0.10;0.10;;;11.30;99.90;;;;;;5027075;28;20446;-81
2023/03/17 08:44:09;;;;;;;0.10;0.10;;;11.30;99.90;;;;;;5034594;28;20265;-81
2023/03/17 08:46:36;;;;;;;0.10;0.10;;;11.50;99.90;;;;;;5017728;28;20656;-82
2023/03/17 08:49:02;;;;;;;0.10;0.10;;;11.10;99.90;;;;;;5019145;28;20202;-82
2023/03/17 08:51:30;;;;;;;0.10;0.10;;;10.90;99.90;;;;;;5017734;28;20552;-82
2023/03/17 08:53:57;;;;;;;0.10;0.10;;;11.40;99.90;;;;;;5037763;28;20213;-82
2023/03/17 08:56:23;;;;;;;0.10;0.10;;;11.50;99.90;;;;;;5020005;28;20233;-82
2023/03/17 08:58:50;;;;;;;0.10;0.10;;;11.80;99.90;;;;;;5028876;28;20205;-82
2023/03/17 09:01:16;;;;;;;0.10;0.10;;;12.00;99.90;;;;;;5044273;28;20174;-82
2023/03/17 09:03:44;;;;;;;0.10;0.10;;;12.10;99.90;;;;;;5018340;28;20186;-82
2023/03/17 09:06:11;;;;;;;0.10;0.10;;;11.50;99.90;;;;;;5019829;28;20308;-82
2023/03/17 09:08:38;;;;;;;0.10;0.10;;;11.90;99.90;;;;;;5037507;28;20273;-82
2023/03/17 09:11:05;;;;;;;0.00;0.00;;;11.70;99.90;;;;;;5027803;28;20191;-83
2023/03/17 09:13:32;;;;;;;0.10;0.10;;;11.80;99.90;;;;;;5034649;28;20202;-82
2023/03/17 09:15:58;;;;;;;0.10;0.10;;;11.50;99.90;;;;;;5018048;28;20299;-83
2023/03/17 09:18:24;;;;;;;0.10;0.10;;;11.10;99.90;;;;;;5018941;28;20224;-82
2023/03/17 09:20:50;;;;;;;0.10;0.10;;;11.00;99.90;;;;;;5017936;28;20216;-82
2023/03/17 09:23:15;;;;;;;0.10;0.10;;;10.90;99.90;;;;;;5016498;28;20192;-82
2023/03/17 09:25:41;;;;;;;0.10;0.10;;;11.50;99.90;;;;;;5017732;28;20197;-83
2023/03/17 09:28:07;;;;;;;0.10;0.10;;;11.60;99.90;;;;;;5020007;28;20195;-82
2023/03/17 09:30:33;;;;;;;0.10;0.10;;;11.60;99.90;;;;;;5018863;28;20194;-82
2023/03/17 09:32:59;;;;;;;0.10;0.10;;;11.70;99.90;;;;;;5015209;28;20232;-82
2023/03/17 09:35:26;;;;;;;0.10;0.10;;;11.40;99.90;;;;;;5016844;28;20655;-83
2023/03/17 09:37:52;;;;;;;0.10;0.10;;;11.70;99.90;;;;;;5016808;28;20190;-82
2023/03/17 09:40:21;;;;;;;0.10;0.10;;;12.10;99.90;;;;;;5016099;28;20683;-83
2023/03/17 09:43:15;;;;;;;0.10;0.10;;;12.30;99.90;;;;;;5025590;28;20186;-83
2023/03/17 09:45:42;;;;;;;0.10;0.10;;;11.90;99.90;;;;;;5025367;28;20194;-83
2023/03/17 09:48:32;;;;;;;0.10;0.10;;;12.20;99.90;;;;;;5033505;28;20659;-83
2023/03/17 09:51:05;;;;;;;0.10;0.10;;;12.00;99.90;;;;;;5012387;28;20644;-83
2023/03/17 09:54:00;;;;;;;0.10;0.10;;;12.50;99.90;;;;;;5014434;28;20221;-82
2023/03/17 09:56:28;;;;;;;0.10;0.10;;;12.30;99.90;;;;;;5002358;28;21906;-83
2023/03/17 09:58:58;;;;;;;0.10;0.10;;;12.20;99.90;;;;;;5016493;28;20214;-83
2023/03/17 10:01:24;;;;;;;0.10;0.10;;;12.60;99.90;;;;;;5015318;28;20213;-83
2023/03/17 10:03:50;;;;;;;0.10;0.10;;;12.70;99.90;;;;;;5017086;28;20200;-83
2023/03/17 10:06:25;;;;;;;0.10;0.10;;;12.90;99.90;;;;;;5034415;28;20219;-82
2023/03/17 10:08:58;;;;;;;0.10;0.10;;;13.00;99.90;;;;;;5035686;28;21068;-83
2023/03/17 10:11:34;;;;;;;0.10;0.10;;;13.20;99.90;;;;;;5024208;28;20180;-83
2023/03/17 10:14:04;;;;;;;0.10;0.10;;;13.30;99.90;;;;;;5013831;28;21014;-83
2023/03/17 10:16:41;;;;;;;0.10;0.10;;;13.20;99.90;;;;;;5014771;28;20186;-83
2023/03/17 10:19:33;;;;;;;0.10;0.10;;;13.20;99.90;;;;;;5017490;28;20254;-84
2023/03/17 10:22:09;;;;;;;0.10;0.10;;;13.30;99.90;;;;;;5013473;28;20186;-86
2023/03/17 10:24:47;;;;;;;0.10;0.10;;;13.50;99.90;;;;;;5028411;28;20184;-85
2023/03/17 10:27:15;;;;;;;0.10;0.10;;;13.60;99.90;;;;;;5013814;28;21159;-85
2023/03/17 10:29:41;;;;;;;0.10;0.10;;;13.50;99.90;;;;;;5015565;28;20256;-85
2023/03/17 10:32:11;;;;;;;0.10;0.10;;;13.50;99.90;;;;;;5015514;28;20267;-85
2023/03/17 10:34:38;;;;;;;0.10;0.10;;;13.10;99.90;;;;;;5024016;28;20184;-85
2023/03/17 10:37:18;;;;;;;0.10;0.10;;;12.90;99.90;;;;;;5017677;28;20198;-84
2023/03/17 10:39:53;;;;;;;0.10;0.10;;;13.40;99.90;;;;;;5016686;28;20296;-85
2023/03/17 10:42:23;;;;;;;0.10;0.10;;;13.70;99.90;;;;;;5016913;28;20177;-85
2023/03/17 10:44:56;;;;;;;0.10;0.10;;;14.10;99.90;;;;;;5018136;28;20205;-86
2023/03/17 10:47:31;;;;;;;0.10;0.10;;;14.20;99.90;;;;;;5015438;28;20178;-85
2023/03/17 10:50:01;;;;;;;0.10;0.10;;;13.70;99.90;;;;;;5033478;28;20239;-85
2023/03/17 10:52:31;;;;;;;0.10;0.10;;;13.40;99.90;;;;;;5014681;28;21140;-85
2023/03/17 10:55:04;;;;;;;0.10;0.10;;;13.50;99.90;;;;;;5035538;28;20192;-85
2023/03/17 10:57:30;;;;;;;0.10;0.10;;;13.70;99.90;;;;;;5016704;28;20525;-85
2023/03/17 10:59:58;;;;;;;0.10;0.10;;;13.90;99.90;;;;;;5034966;28;20304;-86
2023/03/17 11:02:30;;;;;;;0.10;0.10;;;13.70;99.90;;;;;;5031813;28;20655;-85
2023/03/17 11:05:19;;;;;;;0.10;0.10;;;14.10;99.90;;;;;;5015967;28;20196;-85
2023/03/17 11:07:45;;;;;;;0.10;0.10;;;14.50;99.90;;;;;;5018555;28;20196;-83
2023/03/17 11:10:26;;;;;;;0.10;0.10;;;14.60;99.90;;;;;;5019931;28;20209;-85
2023/03/17 11:13:00;;;;;;;0.10;0.10;;;14.80;99.90;;;;;;5012467;28;20233;-86
2023/03/17 11:15:32;;;;;;;0.10;0.10;;;14.90;99.90;;;;;;5020161;28;20247;-85
2023/03/17 11:18:29;;;;;;;0.10;0.10;;;15.10;99.90;;;;;;5018264;28;20240;-85
2023/03/17 11:20:57;;;;;;;0.10;0.10;;;15.10;99.90;;;;;;5019301;28;20201;-85
2023/03/17 11:23:29;;;;;;;0.10;0.10;;;15.00;99.90;;;;;;5018110;28;20178;-85
2023/03/17 11:26:13;;;;;;;0.10;0.10;;;15.00;99.90;;;;;;5035221;28;20288;-85
2023/03/17 11:28:43;;;;;;;0.10;0.10;;;15.00;99.90;;;;;;5035047;28;21041;-85
2023/03/17 11:31:32;;;;;;;0.10;0.10;;;14.50;99.90;;;;;;5019450;28;20213;-85
2023/03/17 11:34:29;;;;;;;0.10;0.10;;;14.90;99.90;;;;;;5037459;28;20206;-86
2023/03/17 11:37:20;;;;;;;0.10;0.10;;;15.30;99.90;;;;;;5019587;28;20185;-85
2023/03/17 11:40:10;;;;;;;0.10;0.10;;;15.50;99.90;;;;;;5018990;28;20205;-85
2023/03/17 11:42:58;;;;;;;0.10;0.10;;;15.80;99.90;;;;;;5019022;28;20240;-86
2023/03/17 11:45:52;;;;;;;0.10;0.10;;;15.60;99.90;;;;;;5018426;28;20231;-85
2023/03/17 11:48:29;;;;;;;0.10;0.10;;;15.70;99.90;;;;;;5038398;28;20210;-85
2023/03/17 11:51:02;;;;;;;0.10;0.10;;;15.10;99.90;;;;;;5020648;28;20182;-85
2023/03/17 11:53:48;;;;;;;0.10;0.10;;;15.00;99.90;;;;;;5018108;28;20212;-86
2023/03/17 11:56:35;;;;;;;0.10;0.10;;;14.30;99.90;;;;;;5020973;28;20623;-85
2023/03/17 11:59:05;;;;;;;0.10;0.10;;;13.70;99.90;;;;;;5018568;28;20385;-86
2023/03/17 12:01:44;;;;;;;0.10;0.10;;;13.60;99.90;;;;;;5034088;28;20175;-85
2023/03/17 12:04:17;;;;;;;0.00;0.00;;;14.20;99.90;;;;;;5028097;28;20937;-85
2023/03/17 12:06:49;;;;;;;0.10;0.10;;;14.80;99.90;;;;;;5027826;28;20209;-85
2023/03/17 12:09:34;;;;;;;0.10;0.10;;;15.20;99.90;;;;;;5019925;28;20209;-85
2023/03/17 12:12:01;;;;;;;0.10;0.10;;;15.40;99.90;;;;;;5022652;28;20193;-85
2023/03/17 12:14:41;;;;;;;0.10;0.10;;;15.50;99.90;;;;;;5019695;28;20182;-86
2023/03/17 12:17:30;;;;;;;0.10;0.10;;;15.00;99.90;;;;;;5020596;28;20568;-86
2023/03/17 12:20:25;;;;;;;0.10;0.10;;;15.30;99.90;;;;;;5035005;28;20225;-85
2023/03/17 12:23:00;;;;;;;0.10;0.10;;;15.40;99.90;;;;;;5021530;28;20277;-85
2023/03/17 12:25:33;;;;;;;0.10;0.10;;;15.10;99.90;;;;;;5019030;28;20194;-85
2023/03/17 12:28:13;;;;;;;0.10;0.10;;;15.30;99.90;;;;;;5035002;28;20187;-85
2023/03/17 12:30:39;;;;;;;0.10;0.10;;;14.80;99.90;;;;;;5035938;28;20348;-85
2023/03/17 12:33:17;;;;;;;0.10;0.10;;;14.60;99.90;;;;;;5016602;28;20224;-85
2023/03/17 12:35:43;;;;;;;0.10;0.10;;;14.90;99.90;;;;;;5016496;28;20295;-85
2023/03/17 12:38:19;;;;;;;0.10;0.10;;;15.20;99.90;;;;;;5018075;28;20218;-85
2023/03/17 12:41:14;;;;;;;0.10;0.10;;;14.70;99.90;;;;;;5019472;28;20178;-85
2023/03/17 12:44:01;;;;;;;0.10;0.10;;;14.40;99.90;;;;;;5016353;28;20192;-86
2023/03/17 12:47:11;;;;;;;0.10;0.10;;;14.20;99.90;;;;;;5030817;28;20228;-86
2023/03/17 12:50:11;;;;;;;0.10;0.10;;;14.70;99.90;;;;;;5032674;28;20207;-86
2023/03/17 12:52:52;;;;;;;0.10;0.10;;;14.20;99.90;;;;;;5019759;28;20240;-85
2023/03/17 12:55:24;;;;;;;0.77;0.77;;;14.00;99.90;;;;;;5019064;28;20177;-85
2023/03/17 12:58:42;;;;;;;0.10;0.10;;;13.70;99.90;;;;;;5015962;28;20174;-86
2023/03/17 13:01:32;;;;;;;0.10;0.10;;;14.10;99.90;;;;;;4914281;29;20273;-85
2023/03/17 13:04:03;;;;;;;0.10;0.10;;;14.30;99.90;;;;;;5034484;28;20601;-85